createdAt,value
2019-02-04T00:01:26.467Z,-1.92
2019-02-04T00:03:55.989Z,-1.88
2019-02-04T00:06:25.433Z,-1.85
2019-02-04T00:08:54.749Z,-1.77
2019-02-04T00:11:24.117Z,-1.67
2019-02-04T00:13:53.401Z,-1.62
2019-02-04T00:16:22.712Z,-1.60
2019-02-04T00:18:52.067Z,-1.55
2019-02-04T00:21:21.406Z,-1.51
2019-02-04T00:23:50.682Z,-1.49
2019-02-04T00:26:19.963Z,-1.49
2019-02-04T00:28:49.333Z,-1.49
2019-02-04T00:31:19.026Z,-1.45
2019-02-04T00:33:48.481Z,-1.41
2019-02-04T00:36:17.829Z,-1.40
2019-02-04T00:38:47.311Z,-1.33
2019-02-04T00:41:16.684Z,-1.28
2019-02-04T00:43:45.967Z,-1.23
2019-02-04T00:46:15.443Z,-1.17
2019-02-04T00:48:44.818Z,-1.13
2019-02-04T00:51:14.168Z,-1.08
2019-02-04T00:53:43.547Z,-1.03
2019-02-04T00:56:12.888Z,-0.90
2019-02-04T00:58:42.189Z,-0.83
2019-02-04T01:01:11.940Z,-0.79
2019-02-04T01:03:41.548Z,-0.72
2019-02-04T01:06:10.918Z,-0.72
2019-02-04T01:08:40.624Z,-0.73
2019-02-04T01:11:10.106Z,-0.78
2019-02-04T01:13:39.637Z,-0.72
2019-02-04T01:16:08.939Z,-0.76
2019-02-04T01:18:38.436Z,-0.63
2019-02-04T01:21:07.874Z,-0.64
2019-02-04T01:23:37.583Z,-0.71
2019-02-04T01:26:07.052Z,-0.70
2019-02-04T01:28:36.798Z,-0.67
2019-02-04T01:31:06.047Z,-0.61
2019-02-04T01:33:35.419Z,-0.59
2019-02-04T01:36:04.950Z,-0.58
2019-02-04T01:38:34.379Z,-0.61
2019-02-04T01:41:04.047Z,-0.72
2019-02-04T01:43:33.525Z,-0.77
2019-02-04T01:46:02.869Z,-0.75
2019-02-04T01:48:32.190Z,-0.86
2019-02-04T01:51:01.739Z,-0.94
2019-02-04T01:53:31.051Z,-0.90
2019-02-04T01:56:00.496Z,-0.97
2019-02-04T01:58:29.817Z,-1.00
2019-02-04T02:00:59.124Z,-1.04
2019-02-04T02:03:28.404Z,-1.06
2019-02-04T02:05:57.767Z,-1.11
2019-02-04T02:08:27.091Z,-1.18
2019-02-04T02:10:57.168Z,-1.23
2019-02-04T02:13:26.773Z,-1.27
2019-02-04T02:15:56.488Z,-1.26
2019-02-04T02:18:25.834Z,-1.18
2019-02-04T02:20:55.146Z,-1.20
2019-02-04T02:23:24.406Z,-1.25
2019-02-04T02:25:54.045Z,-1.30
2019-02-04T02:28:23.662Z,-1.32
2019-02-04T02:30:52.863Z,-1.33
2019-02-04T02:33:22.220Z,-1.33
2019-02-04T02:35:51.574Z,-1.29
2019-02-04T02:38:20.902Z,-1.26
2019-02-04T02:40:50.550Z,-1.28
2019-02-04T02:43:19.860Z,-1.29
2019-02-04T02:45:49.040Z,-1.25
2019-02-04T02:48:18.627Z,-1.19
2019-02-04T02:50:47.856Z,-1.18
2019-02-04T02:53:17.173Z,-1.19
2019-02-04T02:55:46.412Z,-1.17
2019-02-04T02:58:15.718Z,-1.16
2019-02-04T03:00:45.032Z,-1.14
2019-02-04T03:03:14.417Z,-1.17
2019-02-04T03:05:43.674Z,-1.20
2019-02-04T03:08:13.271Z,-1.22
2019-02-04T03:10:42.497Z,-1.19
2019-02-04T03:13:11.733Z,-1.21
2019-02-04T03:15:41.030Z,-1.17
2019-02-04T03:18:10.209Z,-1.12
2019-02-04T03:20:39.434Z,-0.93
2019-02-04T03:23:08.940Z,-0.92
2019-02-04T03:25:38.261Z,-1.03
2019-02-04T03:28:07.572Z,-1.09
2019-02-04T03:30:36.730Z,-1.12
2019-02-04T03:33:06.108Z,-1.14
2019-02-04T03:35:35.396Z,-1.20
2019-02-04T03:38:04.727Z,-1.29
2019-02-04T03:40:34.240Z,-1.29
2019-02-04T03:43:03.609Z,-1.30
2019-02-04T03:45:32.882Z,-1.31
2019-02-04T03:48:07.096Z,-1.34
2019-02-04T03:50:33.790Z,-1.40
2019-02-04T03:53:03.043Z,-1.39
2019-02-04T03:55:32.430Z,-1.45
2019-02-04T03:58:02.191Z,-1.46
2019-02-04T04:00:34.192Z,-1.47
2019-02-04T04:03:03.408Z,-1.50
2019-02-04T04:05:32.692Z,-1.56
2019-02-04T04:08:01.919Z,-1.62
2019-02-04T04:10:31.288Z,-1.59
2019-02-04T04:13:00.550Z,-1.64
2019-02-04T04:15:29.856Z,-1.66
2019-02-04T04:17:59.510Z,-1.56
2019-02-04T04:20:28.773Z,-1.55
2019-02-04T04:22:58.225Z,-1.55
2019-02-04T04:25:30.918Z,-1.54
2019-02-04T04:28:00.383Z,-1.48
2019-02-04T04:30:29.922Z,-1.42
2019-02-04T04:33:00.329Z,-1.40
2019-02-04T04:35:29.683Z,-1.44
2019-02-04T04:37:58.994Z,-1.43
2019-02-04T04:40:28.739Z,-1.44
2019-02-04T04:42:58.117Z,-1.39
2019-02-04T04:45:27.664Z,-1.43
2019-02-04T04:47:56.871Z,-1.44
2019-02-04T04:50:26.192Z,-1.41
2019-02-04T04:52:56.697Z,-1.43
2019-02-04T04:55:28.778Z,-1.41
2019-02-04T04:57:58.498Z,-1.39
2019-02-04T05:00:29.898Z,-1.37
2019-02-04T05:02:59.314Z,-1.34
2019-02-04T05:05:28.824Z,-1.27
2019-02-04T05:07:58.199Z,-1.31
2019-02-04T05:10:27.427Z,-1.30
2019-02-04T05:12:56.783Z,-1.32
2019-02-04T05:15:27.251Z,-1.34
2019-02-04T05:17:56.887Z,-1.34
2019-02-04T05:20:26.106Z,-1.34
2019-02-04T05:22:55.679Z,-1.32
2019-02-04T05:25:25.827Z,-1.33
2019-02-04T05:27:55.513Z,-1.30
2019-02-04T05:30:25.600Z,-1.36
2019-02-04T05:32:54.932Z,-1.38
2019-02-04T05:35:24.380Z,-1.36
2019-02-04T05:37:53.729Z,-1.34
2019-02-04T05:40:23.010Z,-1.25
2019-02-04T05:42:52.730Z,-1.15
2019-02-04T05:45:22.563Z,-0.99
2019-02-04T05:47:51.993Z,-0.91
2019-02-04T05:50:21.688Z,-0.84
2019-02-04T05:52:51.951Z,-0.80
2019-02-04T05:55:23.194Z,-0.77
2019-02-04T05:57:52.425Z,-0.68
2019-02-04T06:00:29.147Z,-0.57
2019-02-04T06:02:58.557Z,-0.56
2019-02-04T06:05:27.896Z,-0.60
2019-02-04T06:07:57.103Z,-0.59
2019-02-04T06:10:26.536Z,-0.62
2019-02-04T06:12:56.427Z,-0.63
2019-02-04T06:15:26.154Z,-0.65
2019-02-04T06:17:55.821Z,-0.66
2019-02-04T06:20:25.663Z,-0.69
2019-02-04T06:22:55.785Z,-0.67
2019-02-04T06:25:25.083Z,-0.64
2019-02-04T06:27:54.349Z,-0.63
2019-02-04T06:30:23.736Z,-0.55
2019-02-04T06:32:54.087Z,-0.59
2019-02-04T06:35:24.226Z,-0.62
2019-02-04T06:37:53.736Z,-0.72
2019-02-04T06:40:23.142Z,-0.74
2019-02-04T06:42:52.466Z,-0.77
2019-02-04T06:45:27.456Z,-0.82
2019-02-04T06:47:56.773Z,-0.88
2019-02-04T06:50:26.531Z,-0.91
2019-02-04T06:52:55.923Z,-0.98
2019-02-04T06:55:30.399Z,-0.96
2019-02-04T06:57:59.692Z,-1.01
2019-02-04T07:00:28.955Z,-1.03
2019-02-04T07:02:59.485Z,-1.04
2019-02-04T07:05:29.185Z,-1.03
2019-02-04T07:07:58.790Z,-1.05
2019-02-04T07:10:28.373Z,-0.97
2019-02-04T07:12:57.758Z,-0.92
2019-02-04T07:15:27.080Z,-0.90
2019-02-04T07:18:01.582Z,-0.86
2019-02-04T07:20:28.862Z,-0.84
2019-02-04T07:22:58.615Z,-0.74
2019-02-04T07:25:27.980Z,-0.69
2019-02-04T07:27:57.589Z,-0.68
2019-02-04T07:30:27.521Z,-0.64
2019-02-04T07:32:58.061Z,-0.58
2019-02-04T07:35:27.844Z,-0.54
2019-02-04T07:37:57.503Z,-0.55
2019-02-04T07:40:28.841Z,-0.48
2019-02-04T07:42:59.002Z,-0.41
2019-02-04T07:45:28.528Z,-0.35
2019-02-04T07:47:58.255Z,-0.32
2019-02-04T07:50:27.665Z,-0.24
2019-02-04T07:52:57.394Z,-0.17
2019-02-04T07:55:28.032Z,-0.10
2019-02-04T07:57:57.746Z,-0.05
2019-02-04T08:00:30.205Z,0.04
2019-02-04T08:02:59.916Z,0.07
2019-02-04T08:05:29.576Z,0.09
2019-02-04T08:07:58.896Z,0.17
2019-02-04T08:10:28.597Z,0.20
2019-02-04T08:13:01.451Z,0.28
2019-02-04T08:15:35.355Z,0.27
2019-02-04T08:18:05.156Z,0.31
2019-02-04T08:20:34.461Z,0.38
2019-02-04T08:23:04.242Z,0.44
2019-02-04T08:25:33.920Z,0.51
2019-02-04T08:28:03.207Z,0.53
2019-02-04T08:30:34.330Z,0.55
2019-02-04T08:33:03.782Z,0.58
2019-02-04T08:35:33.292Z,0.60
2019-02-04T08:38:02.749Z,0.60
2019-02-04T08:40:32.116Z,0.64
2019-02-04T08:43:01.546Z,0.71
2019-02-04T08:45:31.180Z,0.69
2019-02-04T08:48:00.581Z,0.69
2019-02-04T08:50:30.146Z,0.75
2019-02-04T08:52:59.471Z,0.79
2019-02-04T08:55:28.977Z,0.85
2019-02-04T08:57:58.308Z,0.91
2019-02-04T09:00:27.804Z,0.94
2019-02-04T09:02:57.930Z,1.09
2019-02-04T09:05:27.328Z,1.20
2019-02-04T09:07:56.811Z,1.38
2019-02-04T09:10:31.631Z,1.44
2019-02-04T09:13:01.431Z,1.50
2019-02-04T09:15:30.732Z,1.58
2019-02-04T09:18:00.867Z,1.75
2019-02-04T09:20:30.148Z,1.87
2019-02-04T09:22:59.527Z,1.90
2019-02-04T09:25:28.993Z,1.98
2019-02-04T09:27:58.600Z,2.08
2019-02-04T09:30:28.485Z,2.14
2019-02-04T09:32:59.561Z,2.22
2019-02-04T09:35:28.957Z,2.33
2019-02-04T09:38:03.588Z,2.42
2019-02-04T09:40:36.202Z,2.48
2019-02-04T09:43:05.643Z,2.56
2019-02-04T09:45:36.285Z,2.64
2019-02-04T09:48:08.719Z,2.76
2019-02-04T09:50:42.599Z,2.86
2019-02-04T09:53:12.341Z,2.95
2019-02-04T09:55:46.072Z,3.05
2019-02-04T09:58:16.375Z,3.15
2019-02-04T10:00:45.797Z,3.23
2019-02-04T10:03:16.177Z,3.38
2019-02-04T10:05:45.983Z,3.42
2019-02-04T10:08:15.517Z,3.44
2019-02-04T10:10:45.298Z,3.53
2019-02-04T10:13:22.200Z,3.56
2019-02-04T10:15:51.775Z,3.71
2019-02-04T10:18:30.246Z,3.77
2019-02-04T10:21:01.402Z,3.89
2019-02-04T10:23:32.701Z,3.89
2019-02-04T10:26:03.804Z,3.98
2019-02-04T10:28:33.252Z,4.01
2019-02-04T10:31:18.035Z,4.02
2019-02-04T10:34:12.295Z,4.03
2019-02-04T10:36:44.477Z,4.01
2019-02-04T10:39:15.681Z,4.17
2019-02-04T10:41:47.199Z,4.29
2019-02-04T10:44:16.394Z,4.38
2019-02-04T10:46:45.909Z,4.43
2019-02-04T10:49:34.810Z,4.48
2019-02-04T10:52:08.108Z,4.57
2019-02-04T10:54:37.461Z,4.67
2019-02-04T10:57:10.815Z,4.74
2019-02-04T10:59:55.389Z,4.96
2019-02-04T11:02:26.304Z,4.98
2019-02-04T11:05:46.478Z,5.10
2019-02-04T11:08:23.392Z,5.25
2019-02-04T11:10:09.721Z,5.36
2019-02-04T11:12:42.104Z,5.35
2019-02-04T11:15:14.863Z,5.42
2019-02-04T11:17:50.230Z,5.52
2019-02-04T11:20:19.067Z,5.57
2019-02-04T11:22:48.344Z,5.71
2019-02-04T11:25:19.413Z,5.88
2019-02-04T11:27:49.141Z,5.83
2019-02-04T11:30:51.046Z,5.69
2019-02-04T11:33:20.653Z,5.66
2019-02-04T11:35:50.435Z,5.80
2019-02-04T11:38:20.403Z,5.79
2019-02-04T11:40:49.791Z,5.72
2019-02-04T11:43:19.056Z,5.89
2019-02-04T11:45:48.668Z,6.01
2019-02-04T11:48:18.700Z,6.18
2019-02-04T11:50:47.990Z,6.17
2019-02-04T11:53:17.418Z,6.21
2019-02-04T11:55:47.113Z,6.29
2019-02-04T11:58:16.451Z,6.25
2019-02-04T12:00:45.850Z,6.30
2019-02-04T12:03:16.286Z,6.23
2019-02-04T12:05:45.517Z,6.21
2019-02-04T12:08:16.658Z,6.34
2019-02-04T12:10:52.226Z,6.47
2019-02-04T12:13:21.562Z,6.47
2019-02-04T12:15:51.135Z,6.49
2019-02-04T12:18:20.443Z,6.46
2019-02-04T12:20:49.795Z,6.51
2019-02-04T12:23:19.914Z,6.60
2019-02-04T12:25:49.340Z,6.69
2019-02-04T12:28:18.572Z,6.74
2019-02-04T12:30:47.904Z,6.85
2019-02-04T12:33:18.086Z,6.77
2019-02-04T12:35:47.453Z,6.76
2019-02-04T12:38:17.106Z,6.77
2019-02-04T12:40:46.506Z,6.73
2019-02-04T12:43:15.830Z,6.65
2019-02-04T12:45:45.471Z,6.73
2019-02-04T12:48:14.897Z,6.81
2019-02-04T12:50:44.413Z,6.76
2019-02-04T12:53:13.957Z,6.85
2019-02-04T12:55:43.151Z,6.86
2019-02-04T12:58:12.867Z,6.92
2019-02-04T13:00:42.323Z,6.94
2019-02-04T13:03:11.743Z,6.90
2019-02-04T13:05:52.435Z,6.83
2019-02-04T13:08:21.856Z,6.80
2019-02-04T13:10:51.136Z,6.69
2019-02-04T13:13:22.336Z,6.51
2019-02-04T13:15:51.736Z,6.40
2019-02-04T13:18:21.151Z,6.48
2019-02-04T13:20:50.525Z,6.45
2019-02-04T13:23:19.956Z,6.34
2019-02-04T13:25:49.219Z,6.31
2019-02-04T13:28:22.515Z,6.26
2019-02-04T13:31:10.904Z,6.21
2019-02-04T13:33:41.564Z,6.11
2019-02-04T13:36:10.901Z,6.05
2019-02-04T13:38:40.195Z,6.03
2019-02-04T13:41:10.319Z,6.00
2019-02-04T13:43:40.575Z,5.98
2019-02-04T13:46:09.980Z,5.92
2019-02-04T13:48:39.300Z,5.86
2019-02-04T13:51:30.359Z,5.80
2019-02-04T13:53:58.782Z,5.79
2019-02-04T13:56:28.263Z,5.82
2019-02-04T13:58:57.539Z,5.74
2019-02-04T14:01:27.003Z,5.72
2019-02-04T14:03:56.299Z,5.68
2019-02-04T14:06:25.997Z,5.59
2019-02-04T14:08:55.429Z,5.63
2019-02-04T14:11:24.750Z,5.61
2019-02-04T14:13:53.997Z,5.50
2019-02-04T14:16:23.429Z,5.43
2019-02-04T14:18:52.776Z,5.40
2019-02-04T14:21:22.619Z,5.43
2019-02-04T14:23:51.969Z,5.47
2019-02-04T14:26:21.380Z,5.36
2019-02-04T14:28:50.809Z,5.41
2019-02-04T14:31:20.185Z,5.34
2019-02-04T14:33:49.553Z,5.29
2019-02-04T14:36:19.032Z,5.30
2019-02-04T14:38:48.411Z,5.26
2019-02-04T14:41:36.762Z,5.17
2019-02-04T14:44:15.713Z,5.16
2019-02-04T14:47:00.215Z,5.22
2019-02-04T14:50:25.933Z,5.09
2019-02-04T14:53:32.892Z,5.10
2019-02-04T14:56:49.230Z,4.99
2019-02-04T14:59:32.303Z,4.98
2019-02-04T15:02:45.840Z,4.99
2019-02-04T15:05:56.362Z,4.97
2019-02-04T15:09:15.431Z,4.95
2019-02-04T15:12:40.610Z,4.90
2019-02-04T15:15:28.113Z,4.88
2019-02-04T15:18:25.873Z,4.87
2019-02-04T15:21:43.220Z,4.85
2019-02-04T15:24:39.902Z,4.84
2019-02-04T15:27:55.767Z,4.80
2019-02-04T15:30:35.486Z,4.75
2019-02-04T15:33:43.214Z,4.78
2019-02-04T15:36:44.070Z,4.71
2019-02-04T15:39:55.848Z,4.70
2019-02-04T15:43:03.818Z,4.63
2019-02-04T15:46:16.432Z,4.72
2019-02-04T15:49:22.931Z,4.56
2019-02-04T15:51:56.739Z,4.54
2019-02-04T15:54:26.639Z,4.65
2019-02-04T15:56:56.512Z,4.61
2019-02-04T15:59:26.220Z,4.62
2019-02-04T16:01:56.194Z,4.59
2019-02-04T16:04:34.272Z,4.64
2019-02-04T16:07:05.391Z,4.64
2019-02-04T16:09:35.159Z,4.59
2019-02-04T16:12:04.918Z,4.54
2019-02-04T16:14:34.910Z,4.56
2019-02-04T16:17:07.058Z,4.45
2019-02-04T16:19:37.182Z,4.42
2019-02-04T16:22:06.911Z,4.40
2019-02-04T16:24:36.909Z,4.42
2019-02-04T16:27:06.680Z,4.37
2019-02-04T16:29:36.592Z,4.38
2019-02-04T16:32:06.945Z,4.42
2019-02-04T16:34:36.594Z,4.33
2019-02-04T16:37:06.224Z,4.43
2019-02-04T16:39:35.990Z,4.38
2019-02-04T16:42:06.345Z,4.34
2019-02-04T16:44:36.172Z,4.35
2019-02-04T16:47:06.372Z,4.31
2019-02-04T16:49:36.170Z,4.55
2019-02-04T16:52:05.804Z,4.31
2019-02-04T16:54:35.358Z,4.23
2019-02-04T16:57:05.574Z,4.16
2019-02-04T16:59:35.232Z,4.21
2019-02-04T17:02:05.006Z,4.13
2019-02-04T17:04:34.562Z,4.11
2019-02-04T17:07:05.166Z,4.15
2019-02-04T17:09:35.040Z,4.15
2019-02-04T17:12:05.242Z,4.08
2019-02-04T17:14:34.981Z,4.13
2019-02-04T17:17:04.847Z,4.05
2019-02-04T17:19:34.570Z,4.13
2019-02-04T17:22:04.152Z,4.10
2019-02-04T17:24:33.822Z,4.21
2019-02-04T17:27:03.684Z,4.13
2019-02-04T17:29:34.040Z,4.20
2019-02-04T17:32:03.999Z,4.22
2019-02-04T17:34:33.673Z,4.24
2019-02-04T17:37:03.652Z,4.18
2019-02-04T17:39:34.817Z,4.27
2019-02-04T17:42:04.652Z,4.28
2019-02-04T17:44:35.231Z,4.28
2019-02-04T17:47:05.065Z,4.33
2019-02-04T17:49:34.758Z,4.30
2019-02-04T17:52:04.405Z,4.29
2019-02-04T17:54:34.150Z,4.26
2019-02-04T17:57:06.015Z,4.27
2019-02-04T17:59:35.240Z,4.37
2019-02-04T18:02:05.084Z,4.39
2019-02-04T18:04:34.860Z,4.30
2019-02-04T18:07:06.059Z,4.32
2019-02-04T18:09:35.667Z,4.31
2019-02-04T18:12:05.954Z,4.28
2019-02-04T18:14:35.524Z,4.24
2019-02-04T18:17:05.276Z,4.35
2019-02-04T18:19:35.076Z,4.30
2019-02-04T18:22:05.721Z,4.28
2019-02-04T18:24:35.906Z,4.33
2019-02-04T18:27:05.994Z,4.28
2019-02-04T18:29:35.775Z,4.44
2019-02-04T18:32:05.716Z,4.32
2019-02-04T18:34:35.765Z,4.36
2019-02-04T18:37:05.470Z,4.29
2019-02-04T18:39:37.605Z,4.28
2019-02-04T18:42:07.577Z,4.27
2019-02-04T18:44:37.514Z,4.24
2019-02-04T18:47:07.378Z,4.27
2019-02-04T18:49:36.977Z,4.25
2019-02-04T18:52:06.868Z,4.22
2019-02-04T18:54:36.938Z,4.14
2019-02-04T18:57:06.850Z,4.16
2019-02-04T18:59:37.108Z,4.23
2019-02-04T19:02:06.987Z,4.31
2019-02-04T19:04:36.760Z,4.30
2019-02-04T19:07:06.648Z,4.29
2019-02-04T19:09:36.353Z,4.27
2019-02-04T19:12:06.335Z,4.26
2019-02-04T19:14:36.457Z,4.34
2019-02-04T19:17:08.778Z,4.43
2019-02-04T19:19:38.589Z,4.38
2019-02-04T19:22:08.332Z,4.40
2019-02-04T19:24:38.078Z,4.56
2019-02-04T19:27:07.739Z,4.36
2019-02-04T19:29:37.530Z,4.42
2019-02-04T19:32:07.821Z,4.31
2019-02-04T19:34:37.616Z,4.45
2019-02-04T19:37:07.376Z,4.34
2019-02-04T19:39:37.111Z,4.40
2019-02-04T19:42:07.573Z,4.23
2019-02-04T19:44:38.876Z,4.16
2019-02-04T19:47:08.682Z,4.22
2019-02-04T19:49:39.161Z,4.17
2019-02-04T19:52:08.839Z,4.20
2019-02-04T19:54:39.405Z,4.16
2019-02-04T19:57:09.090Z,4.16
2019-02-04T19:59:38.771Z,4.19
2019-02-04T20:02:09.080Z,4.17
2019-02-04T20:04:38.686Z,4.17
2019-02-04T20:07:08.356Z,4.17
2019-02-04T20:09:38.094Z,4.52
2019-02-04T20:12:07.852Z,4.38
2019-02-04T20:14:37.568Z,4.51
2019-02-04T20:17:07.374Z,4.55
2019-02-04T20:19:37.050Z,4.48
2019-02-04T20:22:06.969Z,4.47
2019-02-04T20:24:37.204Z,4.48
2019-02-04T20:27:06.888Z,4.42
2019-02-04T20:29:36.894Z,4.44
2019-02-04T20:32:06.761Z,4.37
2019-02-04T20:34:36.533Z,4.45
2019-02-04T20:37:06.480Z,4.43
2019-02-04T20:39:36.437Z,4.54
2019-02-04T20:42:06.395Z,4.50
2019-02-04T20:44:36.154Z,4.56
2019-02-04T20:47:05.890Z,4.55
2019-02-04T20:49:35.706Z,4.47
2019-02-04T20:52:05.503Z,4.41
2019-02-04T20:54:44.772Z,4.46
2019-02-04T20:57:06.939Z,4.35
2019-02-04T20:59:36.552Z,4.35
2019-02-04T21:02:06.364Z,4.43
2019-02-04T21:04:36.235Z,4.45
2019-02-04T21:07:06.510Z,4.39
2019-02-04T21:09:36.310Z,4.29
2019-02-04T21:12:06.029Z,4.26
2019-02-04T21:14:35.804Z,4.36
2019-02-04T21:17:05.572Z,4.21
2019-02-04T21:19:35.304Z,4.12
2019-02-04T21:22:05.313Z,4.10
2019-02-04T21:24:35.173Z,4.10
2019-02-04T21:27:04.759Z,4.11
2019-02-04T21:29:34.979Z,4.03
2019-02-04T21:32:04.758Z,4.05
2019-02-04T21:34:34.490Z,4.00
2019-02-04T21:37:04.634Z,4.04
2019-02-04T21:39:34.139Z,3.89
2019-02-04T21:42:03.925Z,3.96
2019-02-04T21:44:33.523Z,3.96
2019-02-04T21:47:03.139Z,3.90
2019-02-04T21:49:32.751Z,3.96
2019-02-04T21:52:02.477Z,3.98
2019-02-04T21:54:34.954Z,3.91
2019-02-04T21:57:04.452Z,3.83
2019-02-04T21:59:34.067Z,3.79
2019-02-04T22:02:03.709Z,3.77
2019-02-04T22:04:34.109Z,3.80
2019-02-04T22:07:03.716Z,3.82
2019-02-04T22:09:33.296Z,3.79
2019-02-04T22:12:02.858Z,3.82
2019-02-04T22:14:32.346Z,3.81
2019-02-04T22:17:01.780Z,3.81
2019-02-04T22:19:31.264Z,3.83
2019-02-04T22:22:00.805Z,3.79
2019-02-04T22:24:30.137Z,3.77
2019-02-04T22:26:59.390Z,3.81
2019-02-04T22:29:30.961Z,3.73
2019-02-04T22:31:59.730Z,3.75
2019-02-04T22:34:29.484Z,3.77
2019-02-04T22:36:58.796Z,3.72
2019-02-04T22:39:27.990Z,3.80
2019-02-04T22:41:57.279Z,3.79
2019-02-04T22:44:26.548Z,3.76
2019-02-04T22:46:55.778Z,3.70
2019-02-04T22:49:25.074Z,3.72
2019-02-04T22:51:54.559Z,3.78
2019-02-04T22:54:23.887Z,3.91
2019-02-04T22:56:53.302Z,3.75
2019-02-04T22:59:22.710Z,3.78
2019-02-04T23:01:57.043Z,3.70
2019-02-04T23:04:26.627Z,3.81
2019-02-04T23:06:56.042Z,3.60
2019-02-04T23:09:25.301Z,3.65
2019-02-04T23:11:57.878Z,3.65
2019-02-04T23:14:27.179Z,3.58
2019-02-04T23:16:56.508Z,3.54
2019-02-04T23:19:25.848Z,3.48
2019-02-04T23:21:55.038Z,3.50
2019-02-04T23:24:24.418Z,3.40
2019-02-04T23:26:53.720Z,3.40
2019-02-04T23:29:23.157Z,3.21
2019-02-04T23:31:52.471Z,3.15
2019-02-04T23:34:21.892Z,3.16
2019-02-04T23:36:51.202Z,3.06
2019-02-04T23:39:20.523Z,3.07
2019-02-04T23:41:49.891Z,3.04
2019-02-04T23:44:19.350Z,2.85
2019-02-04T23:46:49.248Z,2.89
2019-02-04T23:49:18.712Z,3.00
2019-02-04T23:51:48.097Z,2.88
2019-02-04T23:54:17.524Z,2.73
2019-02-04T23:56:46.900Z,2.73
2019-02-04T23:59:16.290Z,2.73
